Skip Navigation Links
NOAA logo - Click to go to the NOAA homepage
NOAA's National Weather Service
Alaska Aviation Weather Unit
  NWS logo - Click to go to the NWS homepage
Left Navbar Graphic     08 AKDT = 16 GMT

   
NOAA is celebrating 200 years of science, service, and stewardship. Visit the NOAA 200th celebration Web site to learn more.
USA.gov is the U.S. Government's official Web portal to all Federal, state and local government Web resources and services.
Facebook
NWS on Facebook

Important Change Regarding the AAWU Web Presence

 

Over the last several months, the AAWU has been working to navigate its webpages to a nationally supported server. Security, as well as other needs, have necessitated the change.  In the process, we have made an effort to enhance the functionality of our website, as well as some of our products. As of June 20, 2017, aawu.arh.noaa.gov will be discontinued. The new AAWU web address is weather.gov/aawu. It is now live and will run in-parallel with the old site until it is discontinued. Please send any feedback or questions regarding the new webpages to nws.ar.aawu.webauthors@noaa.gov.  Thank you for your patience during this time of transition.
AAWU Home :: Display TAF Add Bookmark
TAF PABT 291124Z 2912/3012 VRB06KT P6SM SCT035 BKN050 OVC100
     FM291800 VRB06KT P6SM VCSH SCT035 BKN050 OVC100
     FM292100 VRB06KT 6SM -SHRA BR SCT025 BKN035 OVC050=

METAR PABT 291053Z 02004KT 10SM BKN060 OVC080 10/03 A2981 RMK AO2 RAB18E51 SLP103 SHRA DSNT N-E P0000 T01000028 $= METAR PABT 291153Z 35004KT 10SM BKN065 OVC080 09/03 A2980 RMK AO2 RAB26E46 SLP098 P0000 60000 T00940033 10128 20094 58007 $= METAR PABT 291253Z 01007KT 10SM SCT070 BKN090 OVC110 09/04 A2977 RMK AO2 RAB06E39 SLP088 P0000 T00890039 $= METAR PABT 291353Z 01005KT 10SM SCT075 BKN090 OVC110 09/04 A2976 RMK AO2 SLP085 T00890039 $= METAR PABT 291453Z 36006KT 10SM SCT075 BKN100 OVC120 10/03 A2975 RMK AO2 SLP081 60000 T01000033 56016 $= METAR PABT 291553Z 36006KT 10SM FEW025 BKN110 OVC130 10/03 A2974 RMK AO2 SLP077 T01000033 $=
 Alaska TAF Map

NOAA's National Weather Service
Alaska Aviation Weather Unit
6930 Sand Lake Road
Anchorage, AK 99502-1845
Disclaimer
Credits
Glossary
Privacy Policy
About Us
Career Opportunities
Contact AAWU Internet Services Site last modified: April, 17th 2012